sensor_id;sensor_type;location;lat;lon;timestamp;pressure;altitude;pressure_sealevel;temperature;humidity
17649;BME280;8943;51.110;-4.158;2023-01-19T00:01:40;100406.91;;;10.22;49.02
17649;BME280;8943;51.110;-4.158;2023-01-19T00:04:09;100404.06;;;10.25;48.97
17649;BME280;8943;51.110;-4.158;2023-01-19T00:06:39;100397.75;;;10.26;49.03
17649;BME280;8943;51.110;-4.158;2023-01-19T00:09:10;100405.47;;;10.29;48.97
17649;BME280;8943;51.110;-4.158;2023-01-19T00:11:38;100405.00;;;10.24;48.80
17649;BME280;8943;51.110;-4.158;2023-01-19T00:14:06;100407.56;;;10.25;48.89
17649;BME280;8943;51.110;-4.158;2023-01-19T00:16:36;100411.06;;;10.26;48.68
17649;BME280;8943;51.110;-4.158;2023-01-19T00:19:04;100406.59;;;10.26;48.71
17649;BME280;8943;51.110;-4.158;2023-01-19T00:21:32;100401.13;;;10.28;48.56
17649;BME280;8943;51.110;-4.158;2023-01-19T00:24:00;100396.66;;;10.28;48.81
17649;BME280;8943;51.110;-4.158;2023-01-19T00:26:28;100404.91;;;10.25;48.42
17649;BME280;8943;51.110;-4.158;2023-01-19T00:28:56;100410.09;;;10.27;48.70
17649;BME280;8943;51.110;-4.158;2023-01-19T00:31:24;100417.38;;;10.25;48.59
17649;BME280;8943;51.110;-4.158;2023-01-19T00:33:59;100416.47;;;10.24;48.54
17649;BME280;8943;51.110;-4.158;2023-01-19T00:36:27;100406.72;;;10.25;48.72
17649;BME280;8943;51.110;-4.158;2023-01-19T00:38:55;100414.56;;;10.26;48.35
17649;BME280;8943;51.110;-4.158;2023-01-19T00:41:24;100408.41;;;10.26;48.27
17649;BME280;8943;51.110;-4.158;2023-01-19T00:44:06;100413.47;;;10.29;48.21
17649;BME280;8943;51.110;-4.158;2023-01-19T00:46:33;100411.16;;;10.24;48.42
17649;BME280;8943;51.110;-4.158;2023-01-19T00:49:03;100404.13;;;10.23;48.33
17649;BME280;8943;51.110;-4.158;2023-01-19T00:51:31;100408.50;;;10.24;48.45
17649;BME280;8943;51.110;-4.158;2023-01-19T00:53:59;100402.22;;;10.25;48.45
17649;BME280;8943;51.110;-4.158;2023-01-19T00:56:30;100396.06;;;10.25;48.55
17649;BME280;8943;51.110;-4.158;2023-01-19T00:58:58;100393.47;;;10.23;48.46
17649;BME280;8943;51.110;-4.158;2023-01-19T01:01:27;100390.94;;;10.22;48.54
17649;BME280;8943;51.110;-4.158;2023-01-19T01:04:13;100390.19;;;10.20;48.30
17649;BME280;8943;51.110;-4.158;2023-01-19T01:06:41;100378.59;;;10.21;47.98
17649;BME280;8943;51.110;-4.158;2023-01-19T01:09:10;100385.59;;;10.22;48.30
17649;BME280;8943;51.110;-4.158;2023-01-19T01:11:38;100384.75;;;10.21;48.30
17649;BME280;8943;51.110;-4.158;2023-01-19T01:14:07;100384.63;;;10.23;48.10
17649;BME280;8943;51.110;-4.158;2023-01-19T01:16:35;100381.97;;;10.23;48.32
17649;BME280;8943;51.110;-4.158;2023-01-19T01:19:03;100381.78;;;10.26;48.13
17649;BME280;8943;51.110;-4.158;2023-01-19T01:21:33;100378.38;;;10.24;48.01
17649;BME280;8943;51.110;-4.158;2023-01-19T01:24:03;100376.44;;;10.26;48.15
17649;BME280;8943;51.110;-4.158;2023-01-19T01:26:31;100385.41;;;10.25;47.79
17649;BME280;8943;51.110;-4.158;2023-01-19T01:28:59;100379.97;;;10.26;47.69
17649;BME280;8943;51.110;-4.158;2023-01-19T01:31:27;100374.75;;;10.25;47.58
17649;BME280;8943;51.110;-4.158;2023-01-19T01:33:55;100378.13;;;10.27;47.75
17649;BME280;8943;51.110;-4.158;2023-01-19T01:36:23;100380.81;;;10.27;47.48
17649;BME280;8943;51.110;-4.158;2023-01-19T01:38:56;100377.03;;;10.29;47.69
17649;BME280;8943;51.110;-4.158;2023-01-19T01:41:24;100373.31;;;10.32;47.77
17649;BME280;8943;51.110;-4.158;2023-01-19T01:43:54;100366.16;;;10.32;47.45
17649;BME280;8943;51.110;-4.158;2023-01-19T01:46:25;100369.66;;;10.33;47.75
17649;BME280;8943;51.110;-4.158;2023-01-19T01:48:59;100367.00;;;10.33;47.39
17649;BME280;8943;51.110;-4.158;2023-01-19T01:51:30;100365.31;;;10.32;47.16
17649;BME280;8943;51.110;-4.158;2023-01-19T01:54:09;100367.25;;;10.30;47.25
17649;BME280;8943;51.110;-4.158;2023-01-19T01:56:40;100366.38;;;10.29;47.34
17649;BME280;8943;51.110;-4.158;2023-01-19T01:59:12;100362.16;;;10.27;47.26
17649;BME280;8943;51.110;-4.158;2023-01-19T02:01:43;100364.13;;;10.25;47.10
17649;BME280;8943;51.110;-4.158;2023-01-19T02:04:30;100371.53;;;10.20;47.07
17649;BME280;8943;51.110;-4.158;2023-01-19T02:06:58;100369.75;;;10.20;47.23
17649;BME280;8943;51.110;-4.158;2023-01-19T02:09:45;100368.16;;;10.18;47.14
17649;BME280;8943;51.110;-4.158;2023-01-19T02:12:31;100370.84;;;10.18;47.24
17649;BME280;8943;51.110;-4.158;2023-01-19T02:15:18;100372.78;;;10.16;47.17
17649;BME280;8943;51.110;-4.158;2023-01-19T02:17:47;100367.44;;;10.16;47.10
17649;BME280;8943;51.110;-4.158;2023-01-19T02:20:20;100366.47;;;10.17;47.23
17649;BME280;8943;51.110;-4.158;2023-01-19T02:22:50;100365.63;;;10.16;46.69
17649;BME280;8943;51.110;-4.158;2023-01-19T02:25:20;100369.13;;;10.17;47.22
17649;BME280;8943;51.110;-4.158;2023-01-19T02:27:51;100373.50;;;10.18;47.14
17649;BME280;8943;51.110;-4.158;2023-01-19T02:30:20;100362.00;;;10.17;47.00
17649;BME280;8943;51.110;-4.158;2023-01-19T02:32:48;100373.50;;;10.18;47.20
17649;BME280;8943;51.110;-4.158;2023-01-19T02:35:18;100373.50;;;10.18;47.18
17649;BME280;8943;51.110;-4.158;2023-01-19T02:37:47;100368.41;;;10.15;46.98
17649;BME280;8943;51.110;-4.158;2023-01-19T02:40:17;100373.50;;;10.18;47.24
17649;BME280;8943;51.110;-4.158;2023-01-19T02:42:49;100362.97;;;10.16;47.03
17649;BME280;8943;51.110;-4.158;2023-01-19T02:45:20;100361.78;;;10.20;47.41
17649;BME280;8943;51.110;-4.158;2023-01-19T02:47:50;100366.84;;;10.23;47.19
17649;BME280;8943;51.110;-4.158;2023-01-19T02:50:41;100362.16;;;10.27;47.13
17649;BME280;8943;51.110;-4.158;2023-01-19T02:56:24;100351.38;;;10.28;47.13
17649;BME280;8943;51.110;-4.158;2023-01-19T02:59:00;100355.63;;;10.31;47.20
17649;BME280;8943;51.110;-4.158;2023-01-19T03:01:39;100346.91;;;10.29;46.93
17649;BME280;8943;51.110;-4.158;2023-01-19T03:04:22;100348.00;;;10.26;46.92
17649;BME280;8943;51.110;-4.158;2023-01-19T03:06:56;100342.81;;;10.25;46.89
17649;BME280;8943;51.110;-4.158;2023-01-19T03:09:30;100338.53;;;10.22;46.94
17649;BME280;8943;51.110;-4.158;2023-01-19T03:12:02;100340.03;;;10.26;47.04
17649;BME280;8943;51.110;-4.158;2023-01-19T03:14:38;100330.94;;;10.29;47.19
17649;BME280;8943;51.110;-4.158;2023-01-19T03:17:09;100324.53;;;10.31;47.05
17649;BME280;8943;51.110;-4.158;2023-01-19T03:19:40;100325.13;;;10.35;47.15
17649;BME280;8943;51.110;-4.158;2023-01-19T03:22:12;100316.03;;;10.38;47.18
17649;BME280;8943;51.110;-4.158;2023-01-19T03:24:43;100321.25;;;10.39;46.84
17649;BME280;8943;51.110;-4.158;2023-01-19T03:27:16;100316.03;;;10.38;46.98
17649;BME280;8943;51.110;-4.158;2023-01-19T03:29:50;100326.97;;;10.35;46.53
17649;BME280;8943;51.110;-4.158;2023-01-19T03:32:21;100321.25;;;10.28;46.51
17649;BME280;8943;51.110;-4.158;2023-01-19T03:34:57;100321.72;;;10.22;46.49
17649;BME280;8943;51.110;-4.158;2023-01-19T03:37:27;100319.53;;;10.16;46.71
17649;BME280;8943;51.110;-4.158;2023-01-19T03:39:57;100319.03;;;10.11;46.96
17649;BME280;8943;51.110;-4.158;2023-01-19T03:42:26;100322.06;;;10.06;46.73
17649;BME280;8943;51.110;-4.158;2023-01-19T03:44:58;100308.13;;;10.02;47.09
17649;BME280;8943;51.110;-4.158;2023-01-19T03:47:28;100311.16;;;9.98;46.99
17649;BME280;8943;51.110;-4.158;2023-01-19T03:49:57;100317.31;;;9.98;47.02
17649;BME280;8943;51.110;-4.158;2023-01-19T03:52:27;100300.63;;;9.96;46.97
17649;BME280;8943;51.110;-4.158;2023-01-19T03:54:55;100297.22;;;9.94;47.22
17649;BME280;8943;51.110;-4.158;2023-01-19T03:57:23;100289.50;;;9.91;47.23
17649;BME280;8943;51.110;-4.158;2023-01-19T03:59:52;100290.44;;;9.90;47.34
17649;BME280;8943;51.110;-4.158;2023-01-19T04:02:21;100282.72;;;9.87;47.47
17649;BME280;8943;51.110;-4.158;2023-01-19T04:04:50;100277.63;;;9.84;47.50
17649;BME280;8943;51.110;-4.158;2023-01-19T04:07:18;100281.25;;;9.83;47.32
17649;BME280;8943;51.110;-4.158;2023-01-19T04:09:46;100287.41;;;9.84;47.39
17649;BME280;8943;51.110;-4.158;2023-01-19T04:12:14;100283.06;;;9.83;47.39
17649;BME280;8943;51.110;-4.158;2023-01-19T04:14:42;100280.53;;;9.81;47.58
17649;BME280;8943;51.110;-4.158;2023-01-19T04:17:10;100277.13;;;9.79;47.63
17649;BME280;8943;51.110;-4.158;2023-01-19T04:19:41;100279.09;;;9.77;47.60
17649;BME280;8943;51.110;-4.158;2023-01-19T04:22:10;100281.00;;;9.75;47.64
17649;BME280;8943;51.110;-4.158;2023-01-19T04:24:39;100284.63;;;9.74;47.85
17649;BME280;8943;51.110;-4.158;2023-01-19T04:27:07;100274.22;;;9.71;47.90
17649;BME280;8943;51.110;-4.158;2023-01-19T04:29:35;100267.81;;;9.73;47.84
17649;BME280;8943;51.110;-4.158;2023-01-19T04:32:03;100261.88;;;9.70;47.99
17649;BME280;8943;51.110;-4.158;2023-01-19T04:34:31;100262.13;;;9.67;47.81
17649;BME280;8943;51.110;-4.158;2023-01-19T04:37:01;100265.03;;;9.64;47.72
17649;BME280;8943;51.110;-4.158;2023-01-19T04:39:29;100262.34;;;9.64;48.16
17649;BME280;8943;51.110;-4.158;2023-01-19T04:41:57;100255.56;;;9.60;47.69
17649;BME280;8943;51.110;-4.158;2023-01-19T04:44:26;100252.91;;;9.60;47.86
17649;BME280;8943;51.110;-4.158;2023-01-19T04:46:54;100247.94;;;9.55;48.06
17649;BME280;8943;51.110;-4.158;2023-01-19T04:49:22;100252.66;;;9.51;47.84
17649;BME280;8943;51.110;-4.158;2023-01-19T04:51:51;100238.75;;;9.48;48.14
17649;BME280;8943;51.110;-4.158;2023-01-19T04:54:21;100247.94;;;9.44;47.88
17649;BME280;8943;51.110;-4.158;2023-01-19T04:56:50;100249.00;;;9.41;48.08
17649;BME280;8943;51.110;-4.158;2023-01-19T04:59:18;100248.41;;;9.38;48.04
17649;BME280;8943;51.110;-4.158;2023-01-19T05:01:47;100247.06;;;9.32;48.17
17649;BME280;8943;51.110;-4.158;2023-01-19T05:04:15;100241.34;;;9.25;48.22
17649;BME280;8943;51.110;-4.158;2023-01-19T05:06:43;100237.56;;;9.17;48.29
17649;BME280;8943;51.110;-4.158;2023-01-19T05:09:11;100230.28;;;9.08;48.34
17649;BME280;8943;51.110;-4.158;2023-01-19T05:11:42;100223.03;;;8.98;48.50
17649;BME280;8943;51.110;-4.158;2023-01-19T05:14:10;100231.44;;;8.92;48.48
17649;BME280;8943;51.110;-4.158;2023-01-19T05:16:38;100231.19;;;8.84;48.58
17649;BME280;8943;51.110;-4.158;2023-01-19T05:19:06;100227.88;;;8.81;48.56
17649;BME280;8943;51.110;-4.158;2023-01-19T05:21:34;100230.03;;;8.75;48.81
17649;BME280;8943;51.110;-4.158;2023-01-19T05:24:05;100233.75;;;8.73;48.82
17649;BME280;8943;51.110;-4.158;2023-01-19T05:26:33;100222.63;;;8.68;48.86
17649;BME280;8943;51.110;-4.158;2023-01-19T05:29:03;100220.09;;;8.66;48.81
17649;BME280;8943;51.110;-4.158;2023-01-19T05:31:31;100219.97;;;8.68;48.97
17649;BME280;8943;51.110;-4.158;2023-01-19T05:33:59;100221.44;;;8.72;48.93
17649;BME280;8943;51.110;-4.158;2023-01-19T05:36:27;100218.06;;;8.70;48.87
17649;BME280;8943;51.110;-4.158;2023-01-19T05:38:57;100221.44;;;8.72;48.84
17649;BME280;8943;51.110;-4.158;2023-01-19T05:41:25;100211.78;;;8.71;49.00
17649;BME280;8943;51.110;-4.158;2023-01-19T05:43:53;100222.53;;;8.69;48.65
17649;BME280;8943;51.110;-4.158;2023-01-19T05:46:23;100219.03;;;8.69;49.03
17649;BME280;8943;51.110;-4.158;2023-01-19T05:48:51;100215.88;;;8.64;49.12
17649;BME280;8943;51.110;-4.158;2023-01-19T05:51:19;100225.00;;;8.60;49.21
17649;BME280;8943;51.110;-4.158;2023-01-19T05:53:50;100216.53;;;8.55;49.09
17649;BME280;8943;51.110;-4.158;2023-01-19T05:56:17;100216.63;;;8.53;49.26
17649;BME280;8943;51.110;-4.158;2023-01-19T05:58:46;100220.25;;;8.52;49.35
17649;BME280;8943;51.110;-4.158;2023-01-19T06:01:14;100207.94;;;8.51;49.33
17649;BME280;8943;51.110;-4.158;2023-01-19T06:03:44;100216.03;;;8.49;49.42
17649;BME280;8943;51.110;-4.158;2023-01-19T06:06:13;100214.31;;;8.48;49.32
17649;BME280;8943;51.110;-4.158;2023-01-19T06:08:41;100216.97;;;8.48;49.18
17649;BME280;8943;51.110;-4.158;2023-01-19T06:11:10;100217.94;;;8.47;49.63
17649;BME280;8943;51.110;-4.158;2023-01-19T06:13:39;100222.41;;;8.47;49.32
17649;BME280;8943;51.110;-4.158;2023-01-19T06:16:08;100221.56;;;8.46;49.65
17649;BME280;8943;51.110;-4.158;2023-01-19T06:18:37;100222.41;;;8.47;49.66
17649;BME280;8943;51.110;-4.158;2023-01-19T06:21:08;100224.94;;;8.48;49.66
17649;BME280;8943;51.110;-4.158;2023-01-19T06:23:39;100231.72;;;8.52;49.74
17649;BME280;8943;51.110;-4.158;2023-01-19T06:26:07;100225.34;;;8.55;49.58
17649;BME280;8943;51.110;-4.158;2023-01-19T06:28:35;100223.66;;;8.54;49.61
17649;BME280;8943;51.110;-4.158;2023-01-19T06:31:04;100220.38;;;8.50;49.56
17649;BME280;8943;51.110;-4.158;2023-01-19T06:33:32;100228.53;;;8.47;49.66
17649;BME280;8943;51.110;-4.158;2023-01-19T06:36:00;100226.84;;;8.46;49.78
17649;BME280;8943;51.110;-4.158;2023-01-19T06:38:30;100233.84;;;8.47;49.87
17649;BME280;8943;51.110;-4.158;2023-01-19T06:40:58;100229.50;;;8.46;49.97
17649;BME280;8943;51.110;-4.158;2023-01-19T06:43:28;100229.50;;;8.46;49.90
17649;BME280;8943;51.110;-4.158;2023-01-19T06:45:57;100228.53;;;8.47;49.91
17649;BME280;8943;51.110;-4.158;2023-01-19T06:48:27;100235.53;;;8.48;50.28
17649;BME280;8943;51.110;-4.158;2023-01-19T06:50:55;100224.09;;;8.48;49.99
17649;BME280;8943;51.110;-4.158;2023-01-19T06:53:25;100224.94;;;8.48;50.07
17649;BME280;8943;51.110;-4.158;2023-01-19T06:55:59;100232.69;;;8.51;49.97
17649;BME280;8943;51.110;-4.158;2023-01-19T06:58:30;100231.00;;;8.50;50.02
17649;BME280;8943;51.110;-4.158;2023-01-19T07:01:00;100238.00;;;8.51;50.05
17649;BME280;8943;51.110;-4.158;2023-01-19T07:03:29;100228.34;;;8.50;49.99
17649;BME280;8943;51.110;-4.158;2023-01-19T07:05:58;100237.03;;;8.52;50.03
17649;BME280;8943;51.110;-4.158;2023-01-19T07:08:28;100243.44;;;8.50;50.08
17649;BME280;8943;51.110;-4.158;2023-01-19T07:10:59;100247.88;;;8.49;50.13
17649;BME280;8943;51.110;-4.158;2023-01-19T07:13:48;100251.47;;;8.48;50.10
17649;BME280;8943;51.110;-4.158;2023-01-19T07:16:17;100249.78;;;8.47;50.06
17649;BME280;8943;51.110;-4.158;2023-01-19T07:18:47;100247.38;;;8.44;50.21
17649;BME280;8943;51.110;-4.158;2023-01-19T07:21:16;100252.56;;;8.46;50.20
17649;BME280;8943;51.110;-4.158;2023-01-19T07:23:47;100243.00;;;8.43;50.20
17649;BME280;8943;51.110;-4.158;2023-01-19T07:26:16;100243.84;;;8.44;50.20
17649;BME280;8943;51.110;-4.158;2023-01-19T07:28:47;100253.63;;;8.43;50.33
17649;BME280;8943;51.110;-4.158;2023-01-19T07:31:15;100252.03;;;8.41;50.54
17649;BME280;8943;51.110;-4.158;2023-01-19T07:33:45;100254.59;;;8.42;50.21
17649;BME280;8943;51.110;-4.158;2023-01-19T07:36:13;100258.09;;;8.43;50.34
17649;BME280;8943;51.110;-4.158;2023-01-19T07:38:41;100258.31;;;8.40;50.38
17649;BME280;8943;51.110;-4.158;2023-01-19T07:41:09;100263.72;;;8.38;50.21
17649;BME280;8943;51.110;-4.158;2023-01-19T07:43:38;100257.44;;;8.39;50.37
17649;BME280;8943;51.110;-4.158;2023-01-19T07:46:06;100257.44;;;8.39;50.61
17649;BME280;8943;51.110;-4.158;2023-01-19T07:48:35;100248.53;;;8.40;50.38
17649;BME280;8943;51.110;-4.158;2023-01-19T07:51:04;100237.94;;;8.40;50.45
17649;BME280;8943;51.110;-4.158;2023-01-19T07:53:38;100242.28;;;8.41;50.37
17649;BME280;8943;51.110;-4.158;2023-01-19T07:56:09;100243.00;;;8.43;50.42
17649;BME280;8943;51.110;-4.158;2023-01-19T07:58:38;100233.34;;;8.42;50.39
17649;BME280;8943;51.110;-4.158;2023-01-19T08:01:07;100247.38;;;8.44;50.24
17649;BME280;8943;51.110;-4.158;2023-01-19T08:03:36;100242.41;;;8.40;49.88
17649;BME280;8943;51.110;-4.158;2023-01-19T08:06:05;100245.34;;;8.35;50.36
17649;BME280;8943;51.110;-4.158;2023-01-19T08:08:33;100256.16;;;8.32;50.40
17649;BME280;8943;51.110;-4.158;2023-01-19T08:11:01;100246.41;;;8.33;50.43
17649;BME280;8943;51.110;-4.158;2023-01-19T08:13:29;100256.16;;;8.32;50.48
17649;BME280;8943;51.110;-4.158;2023-01-19T08:15:59;100256.16;;;8.32;50.47
17649;BME280;8943;51.110;-4.158;2023-01-19T08:18:28;100257.84;;;8.33;50.52
17649;BME280;8943;51.110;-4.158;2023-01-19T08:20:57;100264.25;;;8.31;50.38
17649;BME280;8943;51.110;-4.158;2023-01-19T08:23:25;100260.00;;;8.28;50.26
17649;BME280;8943;51.110;-4.158;2023-01-19T08:25:53;100263.72;;;8.25;50.48
17649;BME280;8943;51.110;-4.158;2023-01-19T08:28:21;100273.59;;;8.23;50.62
17649;BME280;8943;51.110;-4.158;2023-01-19T08:30:49;100272.88;;;8.21;50.52
17649;BME280;8943;51.110;-4.158;2023-01-19T08:33:23;100274.88;;;8.18;50.61
17649;BME280;8943;51.110;-4.158;2023-01-19T08:35:52;100284.66;;;8.17;50.63
17649;BME280;8943;51.110;-4.158;2023-01-19T08:38:20;100286.47;;;8.17;50.65
17649;BME280;8943;51.110;-4.158;2023-01-19T08:40:48;100282.97;;;8.16;50.67
17649;BME280;8943;51.110;-4.158;2023-01-19T08:43:17;100286.34;;;8.18;50.54
17649;BME280;8943;51.110;-4.158;2023-01-19T08:45:49;100286.47;;;8.17;50.52
17649;BME280;8943;51.110;-4.158;2023-01-19T08:48:19;100289.00;;;8.18;50.56
17649;BME280;8943;51.110;-4.158;2023-01-19T08:50:50;100283.03;;;8.15;50.51
17649;BME280;8943;51.110;-4.158;2023-01-19T08:53:19;100280.50;;;8.13;50.43
17649;BME280;8943;51.110;-4.158;2023-01-19T08:55:49;100284.97;;;8.13;50.58
17649;BME280;8943;51.110;-4.158;2023-01-19T08:58:17;100292.19;;;8.11;50.47
17649;BME280;8943;51.110;-4.158;2023-01-19T09:00:45;100296.88;;;8.07;50.38
17649;BME280;8943;51.110;-4.158;2023-01-19T09:03:14;100302.50;;;8.03;50.58
17649;BME280;8943;51.110;-4.158;2023-01-19T09:05:42;100296.66;;;7.97;50.25
17649;BME280;8943;51.110;-4.158;2023-01-19T09:08:13;100309.19;;;7.95;50.59
17649;BME280;8943;51.110;-4.158;2023-01-19T09:10:44;100306.75;;;7.92;50.83
17649;BME280;8943;51.110;-4.158;2023-01-19T09:13:13;100302.41;;;7.91;50.51
17649;BME280;8943;51.110;-4.158;2023-01-19T09:15:42;100304.94;;;7.93;50.74
17649;BME280;8943;51.110;-4.158;2023-01-19T09:18:12;100310.34;;;7.91;50.65
17649;BME280;8943;51.110;-4.158;2023-01-19T09:20:41;100310.13;;;7.94;50.62
17649;BME280;8943;51.110;-4.158;2023-01-19T09:23:10;100314.38;;;7.97;50.79
17649;BME280;8943;51.110;-4.158;2023-01-19T09:25:40;100317.69;;;8.00;50.72
17649;BME280;8943;51.110;-4.158;2023-01-19T09:28:11;100324.56;;;8.03;51.27
17649;BME280;8943;51.110;-4.158;2023-01-19T09:30:41;100325.22;;;8.07;51.10
17649;BME280;8943;51.110;-4.158;2023-01-19T09:33:13;100327.75;;;8.08;51.01
17649;BME280;8943;51.110;-4.158;2023-01-19T09:35:44;100336.69;;;8.20;51.40
17649;BME280;8943;51.110;-4.158;2023-01-19T09:38:13;100322.53;;;8.32;51.26
17649;BME280;8943;51.110;-4.158;2023-01-19T09:40:46;100316.28;;;8.46;51.31
17649;BME280;8943;51.110;-4.158;2023-01-19T09:43:21;100317.84;;;8.61;51.42
17649;BME280;8943;51.110;-4.158;2023-01-19T09:45:55;100320.34;;;8.75;51.18
17649;BME280;8943;51.110;-4.158;2023-01-19T09:48:29;100319.34;;;8.89;51.01
17649;BME280;8943;51.110;-4.158;2023-01-19T09:51:02;100325.44;;;9.02;51.12
17649;BME280;8943;51.110;-4.158;2023-01-19T09:53:41;100333.50;;;9.14;51.04
17649;BME280;8943;51.110;-4.158;2023-01-19T09:56:14;100330.88;;;9.25;51.06
17649;BME280;8943;51.110;-4.158;2023-01-19T09:58:42;100325.50;;;9.38;51.12
17649;BME280;8943;51.110;-4.158;2023-01-19T10:04:23;100319.19;;;9.63;51.07
17649;BME280;8943;51.110;-4.158;2023-01-19T10:06:58;100329.84;;;9.74;50.72
17649;BME280;8943;51.110;-4.158;2023-01-19T10:09:34;100332.78;;;9.82;50.84
17649;BME280;8943;51.110;-4.158;2023-01-19T10:12:10;100334.25;;;9.86;50.85
17649;BME280;8943;51.110;-4.158;2023-01-19T10:14:48;100334.75;;;9.91;50.43
17649;BME280;8943;51.110;-4.158;2023-01-19T10:17:34;100335.25;;;9.96;50.31
17649;BME280;8943;51.110;-4.158;2023-01-19T10:20:13;100341.75;;;10.03;50.64
17649;BME280;8943;51.110;-4.158;2023-01-19T10:22:46;100341.28;;;10.10;50.59
17649;BME280;8943;51.110;-4.158;2023-01-19T10:25:18;100344.22;;;10.18;50.64
17649;BME280;8943;51.110;-4.158;2023-01-19T10:27:50;100350.53;;;10.28;50.74
17649;BME280;8943;51.110;-4.158;2023-01-19T10:30:21;100357.59;;;10.40;50.52
17649;BME280;8943;51.110;-4.158;2023-01-19T10:32:50;100357.44;;;10.53;50.44
17649;BME280;8943;51.110;-4.158;2023-01-19T10:35:20;100362.16;;;10.72;50.68
17649;BME280;8943;51.110;-4.158;2023-01-19T10:37:51;100364.56;;;10.86;50.51
17649;BME280;8943;51.110;-4.158;2023-01-19T10:40:27;100361.13;;;11.06;50.06
17649;BME280;8943;51.110;-4.158;2023-01-19T10:42:59;100375.78;;;11.23;50.53
17649;BME280;8943;51.110;-4.158;2023-01-19T10:45:29;100364.22;;;11.34;49.93
17649;BME280;8943;51.110;-4.158;2023-01-19T10:48:03;100368.81;;;11.43;49.84
17649;BME280;8943;51.110;-4.158;2023-01-19T10:50:34;100369.13;;;11.50;49.81
17649;BME280;8943;51.110;-4.158;2023-01-19T10:53:05;100368.38;;;11.59;49.78
17649;BME280;8943;51.110;-4.158;2023-01-19T10:55:46;100370.41;;;11.67;49.46
17649;BME280;8943;51.110;-4.158;2023-01-19T10:58:27;100373.25;;;11.75;49.36
17649;BME280;8943;51.110;-4.158;2023-01-19T11:01:11;100373.25;;;11.75;48.80
17649;BME280;8943;51.110;-4.158;2023-01-19T11:03:41;100372.16;;;11.77;49.13
17649;BME280;8943;51.110;-4.158;2023-01-19T11:06:26;100375.44;;;11.81;48.47
17649;BME280;8943;51.110;-4.158;2023-01-19T11:09:15;100371.28;;;11.88;49.05
17649;BME280;8943;51.110;-4.158;2023-01-19T11:11:48;100373.81;;;11.90;48.80
17649;BME280;8943;51.110;-4.158;2023-01-19T11:14:21;100375.50;;;11.91;48.64
17649;BME280;8943;51.110;-4.158;2023-01-19T11:16:51;100377.34;;;11.90;48.58
17649;BME280;8943;51.110;-4.158;2023-01-19T11:19:25;100379.06;;;11.91;48.46
17649;BME280;8943;51.110;-4.158;2023-01-19T11:22:08;100382.69;;;11.90;48.70
17649;BME280;8943;51.110;-4.158;2023-01-19T11:24:38;100372.72;;;11.92;48.43
17649;BME280;8943;51.110;-4.158;2023-01-19T11:27:06;100384.41;;;11.91;48.58
17649;BME280;8943;51.110;-4.158;2023-01-19T11:29:36;100387.16;;;11.90;48.14
17649;BME280;8943;51.110;-4.158;2023-01-19T11:32:18;100388.28;;;11.87;48.27
17649;BME280;8943;51.110;-4.158;2023-01-19T11:34:48;100386.00;;;11.82;48.08
17649;BME280;8943;51.110;-4.158;2023-01-19T11:37:28;100394.38;;;11.78;48.23
17649;BME280;8943;51.110;-4.158;2023-01-19T11:40:00;100383.09;;;11.74;47.92
17649;BME280;8943;51.110;-4.158;2023-01-19T11:42:32;100391.56;;;11.79;48.27
17649;BME280;8943;51.110;-4.158;2023-01-19T11:45:09;100390.22;;;11.85;48.48
17649;BME280;8943;51.110;-4.158;2023-01-19T11:47:42;100385.81;;;11.95;48.40
17649;BME280;8943;51.110;-4.158;2023-01-19T11:50:21;100384.06;;;12.05;48.22
17649;BME280;8943;51.110;-4.158;2023-01-19T11:52:55;100379.88;;;12.13;48.27
17649;BME280;8943;51.110;-4.158;2023-01-19T11:55:32;100384.25;;;12.14;48.39
17649;BME280;8943;51.110;-4.158;2023-01-19T11:58:04;100389.34;;;12.17;48.33
17649;BME280;8943;51.110;-4.158;2023-01-19T12:00:36;100394.41;;;12.20;48.38
17649;BME280;8943;51.110;-4.158;2023-01-19T12:03:13;100389.66;;;12.23;48.07
17649;BME280;8943;51.110;-4.158;2023-01-19T12:05:47;100392.19;;;12.25;47.65
17649;BME280;8943;51.110;-4.158;2023-01-19T12:08:20;100369.13;;;12.24;46.94
17649;BME280;8943;51.110;-4.158;2023-01-19T12:10:52;100386.38;;;12.20;46.24
17649;BME280;8943;51.110;-4.158;2023-01-19T12:13:23;100384.84;;;12.17;45.53
17649;BME280;8943;51.110;-4.158;2023-01-19T12:15:57;100378.06;;;12.13;45.13
17649;BME280;8943;51.110;-4.158;2023-01-19T12:18:29;100381.25;;;12.07;44.90
17649;BME280;8943;51.110;-4.158;2023-01-19T12:21:00;100386.69;;;11.96;44.67
17649;BME280;8943;51.110;-4.158;2023-01-19T12:23:50;100392.19;;;11.83;44.55
17649;BME280;8943;51.110;-4.158;2023-01-19T12:26:25;100378.03;;;11.71;44.64
17649;BME280;8943;51.110;-4.158;2023-01-19T12:28:57;100390.56;;;11.59;44.40
17649;BME280;8943;51.110;-4.158;2023-01-19T12:31:28;100381.75;;;11.48;44.44
17649;BME280;8943;51.110;-4.158;2023-01-19T12:34:27;100385.06;;;11.40;43.47
17649;BME280;8943;51.110;-4.158;2023-01-19T12:37:01;100387.75;;;11.29;42.75
17649;BME280;8943;51.110;-4.158;2023-01-19T12:39:31;100391.03;;;11.21;42.19
17649;BME280;8943;51.110;-4.158;2023-01-19T12:42:10;100383.53;;;11.15;41.66
17649;BME280;8943;51.110;-4.158;2023-01-19T12:44:41;100389.25;;;11.11;41.42
17649;BME280;8943;51.110;-4.158;2023-01-19T12:47:20;100386.81;;;11.07;41.26
17649;BME280;8943;51.110;-4.158;2023-01-19T12:49:51;100387.78;;;11.06;41.04
17649;BME280;8943;51.110;-4.158;2023-01-19T12:52:31;100384.41;;;11.04;41.33
17649;BME280;8943;51.110;-4.158;2023-01-19T12:55:19;100398.59;;;11.05;41.17
17649;BME280;8943;51.110;-4.158;2023-01-19T12:57:55;100400.66;;;11.01;41.18
17649;BME280;8943;51.110;-4.158;2023-01-19T13:00:35;100397.88;;;11.03;41.50
17649;BME280;8943;51.110;-4.158;2023-01-19T13:03:43;100398.81;;;11.02;41.63
17649;BME280;8943;51.110;-4.158;2023-01-19T13:06:11;100405.28;;;10.99;41.96
17649;BME280;8943;51.110;-4.158;2023-01-19T13:08:56;100405.97;;;11.01;42.35
17649;BME280;8943;51.110;-4.158;2023-01-19T13:11:24;100416.41;;;11.04;42.01
17649;BME280;8943;51.110;-4.158;2023-01-19T13:17:25;100414.00;;;11.13;41.11
17649;BME280;8943;51.110;-4.158;2023-01-19T13:20:23;100412.75;;;11.17;40.94
17649;BME280;8943;51.110;-4.158;2023-01-19T13:23:21;100423.03;;;11.21;40.79
17649;BME280;8943;51.110;-4.158;2023-01-19T13:28:41;100420.38;;;11.32;40.91
17649;BME280;8943;51.110;-4.158;2023-01-19T13:31:10;100422.16;;;11.32;40.50